Home > Products > Valid Products > TAF

000
FTUS45 KGJT 011734
TAFGJT
TAF
KGJT 011734Z 0118/0218 17003KT P6SM SCT090 SCT150
     FM011900 24008KT P6SM SCT100 SCT150
     FM020200 10005KT P6SM SCT100 SCT200
     FM020500 11010KT P6SM FEW110
     FM021700 16006KT P6SM FEW120=



000
FTUS45 KGJT 011734
TAFGJT
TAF
KGJT 011734Z 0118/0218 17003KT P6SM SCT090 SCT150
     FM011900 24008KT P6SM SCT100 SCT150
     FM020200 10005KT P6SM SCT100 SCT200
     FM020500 11010KT P6SM FEW110
     FM021700 16006KT P6SM FEW120=



000
FTUS45 KGJT 011120
TAFGJT
TAF
KGJT 011120Z 0112/0212 13005KT P6SM FEW110
     FM011600 16007KT P6SM FEW100
     FM012000 24008KT P6SM SCT100 SCT200
     FM020200 10005KT P6SM SCT100 SCT200
     FM020500 11010KT P6SM FEW110=



000
FTUS45 KGJT 011120
TAFGJT
TAF
KGJT 011120Z 0112/0212 13005KT P6SM FEW110
     FM011600 16007KT P6SM FEW100
     FM012000 24008KT P6SM SCT100 SCT200
     FM020200 10005KT P6SM SCT100 SCT200
     FM020500 11010KT P6SM FEW110=



000
FTUS45 KGJT 011120
TAFGJT
TAF
KGJT 011120Z 0112/0212 13005KT P6SM FEW110
     FM011600 16007KT P6SM FEW100
     FM012000 24008KT P6SM SCT100 SCT200
     FM020200 10005KT P6SM SCT100 SCT200
     FM020500 11010KT P6SM FEW110=



000
FTUS45 KGJT 011120
TAFGJT
TAF
KGJT 011120Z 0112/0212 13005KT P6SM FEW110
     FM011600 16007KT P6SM FEW100
     FM012000 24008KT P6SM SCT100 SCT200
     FM020200 10005KT P6SM SCT100 SCT200
     FM020500 11010KT P6SM FEW110=



000
FTUS45 KGJT 010536
TAFGJT
TAF
KGJT 010536Z 0106/0206 11008KT P6SM FEW090 SCT200
     FM011600 16007KT P6SM SCT200
     FM012000 25008KT P6SM SCT100 SCT200
     FM020200 10004KT P6SM FEW100 SCT200=



000
FTUS45 KGJT 010536
TAFGJT
TAF
KGJT 010536Z 0106/0206 11008KT P6SM FEW090 SCT200
     FM011600 16007KT P6SM SCT200
     FM012000 25008KT P6SM SCT100 SCT200
     FM020200 10004KT P6SM FEW100 SCT200=



000
FTUS45 KGJT 010325 AAA
TAFGJT
TAF AMD
KGJT 010325Z 0103/0124 10005KT P6SM SCT100 BKN150
     FM010400 31010KT P6SM SCT100 BKN150
     FM010500 11008KT P6SM FEW120 BKN200
     FM011600 16007KT P6SM SCT200
     FM012100 25008KT P6SM SCT100 BKN150=



000
FTUS45 KGJT 010325 AAA
TAFGJT
TAF AMD
KGJT 010325Z 0103/0124 10005KT P6SM SCT100 BKN150
     FM010400 31010KT P6SM SCT100 BKN150
     FM010500 11008KT P6SM FEW120 BKN200
     FM011600 16007KT P6SM SCT200
     FM012100 25008KT P6SM SCT100 BKN150=



000
FTUS45 KGJT 312340
TAFGJT
TAF
KGJT 312340Z 0100/0124 12007KT P6SM SCT080 BKN150
     FM010600 11008KT P6SM FEW120 BKN200
     FM011600 16007KT P6SM SCT200
     FM012100 25008KT P6SM SCT100 BKN150=



000
FTUS45 KGJT 312340
TAFGJT
TAF
KGJT 312340Z 0100/0124 12007KT P6SM SCT080 BKN150
     FM010600 11008KT P6SM FEW120 BKN200
     FM011600 16007KT P6SM SCT200
     FM012100 25008KT P6SM SCT100 BKN150=



000
FTUS45 KGJT 311735
TAFGJT
TAF
KGJT 311735Z 3118/0118 16007KT P6SM VCSH SCT100 SCT140
     FM312100 24007KT P6SM VCSH SCT100 SCT150
     FM010200 08008KT P6SM VCSH SCT100 SCT200
     FM010600 11008KT P6SM FEW120
     FM011600 14007KT P6SM SCT120=



000
FTUS45 KGJT 311735
TAFGJT
TAF
KGJT 311735Z 3118/0118 16007KT P6SM VCSH SCT100 SCT140
     FM312100 24007KT P6SM VCSH SCT100 SCT150
     FM010200 08008KT P6SM VCSH SCT100 SCT200
     FM010600 11008KT P6SM FEW120
     FM011600 14007KT P6SM SCT120=



000
FTUS45 KGJT 311530 AAB
TAFGJT
TAF AMD
KGJT 311530Z 3116/0112 VRB03KT P6SM -SHRA BKN080 OVC100
      TEMPO 3116/3117 P6SM NSW SCT080 OVC100
     FM311700 13004KT P6SM VCSH SCT080 BKN110
     FM312000 24008KT P6SM SCT100 SCT200
     FM010200 08008KT P6SM SCT100 SCT200
     FM010600 11008KT P6SM FEW100=



000
FTUS45 KGJT 311530 AAB
TAFGJT
TAF AMD
KGJT 311530Z 3116/0112 VRB03KT P6SM -SHRA BKN080 OVC100
      TEMPO 3116/3117 P6SM NSW SCT080 OVC100
     FM311700 13004KT P6SM VCSH SCT080 BKN110
     FM312000 24008KT P6SM SCT100 SCT200
     FM010200 08008KT P6SM SCT100 SCT200
     FM010600 11008KT P6SM FEW100=



000
FTUS45 KGJT 311136 AAA
TAFGJT
TAF AMD
KGJT 311136Z 3112/0112 13008KT P6SM VCSH FEW090 BKN120
      TEMPO 3112/3113 -SHRA BKN090
     FM312000 24008KT P6SM SCT100 SCT200
     FM010200 08008KT P6SM SCT100 SCT200
     FM010600 11008KT P6SM FEW100=



000
FTUS45 KGJT 311136 AAA
TAFGJT
TAF AMD
KGJT 311136Z 3112/0112 13008KT P6SM VCSH FEW090 BKN120
      TEMPO 3112/3113 -SHRA BKN090
     FM312000 24008KT P6SM SCT100 SCT200
     FM010200 08008KT P6SM SCT100 SCT200
     FM010600 11008KT P6SM FEW100=



000
FTUS45 KGJT 311136 AAA
TAFGJT
TAF AMD
KGJT 311136Z 3112/0112 13008KT P6SM VCSH FEW090 BKN120
      TEMPO 3112/3113 -SHRA BKN090
     FM312000 24008KT P6SM SCT100 SCT200
     FM010200 08008KT P6SM SCT100 SCT200
     FM010600 11008KT P6SM FEW100=



000
FTUS45 KGJT 311136 AAA
TAFGJT
TAF AMD
KGJT 311136Z 3112/0112 13008KT P6SM VCSH FEW090 BKN120
      TEMPO 3112/3113 -SHRA BKN090
     FM312000 24008KT P6SM SCT100 SCT200
     FM010200 08008KT P6SM SCT100 SCT200
     FM010600 11008KT P6SM FEW100=



000
FTUS45 KGJT 311132
TAFGJT
TAF
KGJT 311132Z 3112/0112 13008KT P6SM VCSH FEW090 BKN120
      TEMPO 3112/3113 TS BKN090CB
     FM312000 24008KT P6SM SCT100 SCT200
     FM010200 08008KT P6SM SCT100 SCT200
     FM010600 11008KT P6SM FEW100=



000
FTUS45 KGJT 311132
TAFGJT
TAF
KGJT 311132Z 3112/0112 13008KT P6SM VCSH FEW090 BKN120
      TEMPO 3112/3113 TS BKN090CB
     FM312000 24008KT P6SM SCT100 SCT200
     FM010200 08008KT P6SM SCT100 SCT200
     FM010600 11008KT P6SM FEW100=



000
FTUS45 KGJT 310533
TAFGJT
TAF
KGJT 310533Z 3106/0106 28009KT 6SM -RA FEW060 BKN090 OVC110
     FM310800 11008KT P6SM VCSH FEW080 BKN100
     FM311400 13008KT P6SM SCT100 SCT200
     FM312000 24008KT P6SM SCT100 SCT200
     FM010200 08008KT P6SM FEW100 SCT200=



000
FTUS45 KGJT 310533
TAFGJT
TAF
KGJT 310533Z 3106/0106 28009KT 6SM -RA FEW060 BKN090 OVC110
     FM310800 11008KT P6SM VCSH FEW080 BKN100
     FM311400 13008KT P6SM SCT100 SCT200
     FM312000 24008KT P6SM SCT100 SCT200
     FM010200 08008KT P6SM FEW100 SCT200=



000
FTUS45 KGJT 310533
TAFGJT
TAF
KGJT 310533Z 3106/0106 28009KT 6SM -RA FEW060 BKN090 OVC110
     FM310800 11008KT P6SM VCSH FEW080 BKN100
     FM311400 13008KT P6SM SCT100 SCT200
     FM312000 24008KT P6SM SCT100 SCT200
     FM010200 08008KT P6SM FEW100 SCT200=



000
FTUS45 KGJT 310010 AAA
TAFGJT
TAF AMD
KGJT 310010Z 3100/3124 30009KT P6SM VCTS SCT110CB BKN150
      TEMPO 3100/3104 VRB20G30KT -TSRA
     FM310600 11008KT P6SM SCT100 BKN150
     FM311200 11012KT P6SM SCT200=



000
FTUS45 KGJT 310010 AAA
TAFGJT
TAF AMD
KGJT 310010Z 3100/3124 30009KT P6SM VCTS SCT110CB BKN150
      TEMPO 3100/3104 VRB20G30KT -TSRA
     FM310600 11008KT P6SM SCT100 BKN150
     FM311200 11012KT P6SM SCT200=



000
FTUS45 KGJT 310010 AAA
TAFGJT
TAF AMD
KGJT 310010Z 3100/3124 30009KT P6SM VCTS SCT110CB BKN150
      TEMPO 3100/3104 VRB20G30KT -TSRA
     FM310600 11008KT P6SM SCT100 BKN150
     FM311200 11012KT P6SM SCT200=



000
FTUS45 KGJT 310010 AAA
TAFGJT
TAF AMD
KGJT 310010Z 3100/3124 30009KT P6SM VCTS SCT110CB BKN150
      TEMPO 3100/3104 VRB20G30KT -TSRA
     FM310600 11008KT P6SM SCT100 BKN150
     FM311200 11012KT P6SM SCT200=



000
FTUS45 KGJT 302322
TAFGJT
TAF
KGJT 302322Z 3100/3124 14015KT P6SM VCTS SCT070CB BKN110
     FM310200 12010KT P6SM VCTS SCT070CB BKN100
      TEMPO 3102/3104 VRB20G30KT -TSRA
     FM310600 11008KT P6SM SCT100 BKN150
     FM311200 11012KT P6SM SCT200=



000
FTUS45 KGJT 302322
TAFGJT
TAF
KGJT 302322Z 3100/3124 14015KT P6SM VCTS SCT070CB BKN110
     FM310200 12010KT P6SM VCTS SCT070CB BKN100
      TEMPO 3102/3104 VRB20G30KT -TSRA
     FM310600 11008KT P6SM SCT100 BKN150
     FM311200 11012KT P6SM SCT200=



000
FTUS45 KGJT 302322
TAFGJT
TAF
KGJT 302322Z 3100/3124 14015KT P6SM VCTS SCT070CB BKN110
     FM310200 12010KT P6SM VCTS SCT070CB BKN100
      TEMPO 3102/3104 VRB20G30KT -TSRA
     FM310600 11008KT P6SM SCT100 BKN150
     FM311200 11012KT P6SM SCT200=



000
FTUS45 KGJT 301741
TAFGJT
TAF
KGJT 301741Z 3018/3118 15007KT P6SM FEW070 SCT150
     FM302000 22010KT P6SM VCTS SCT070CB BKN150
     FM310200 12010KT P6SM VCTS SCT070CB BKN100
     FM310600 11008KT P6SM SCT100 BKN150=



000
FTUS45 KGJT 301741
TAFGJT
TAF
KGJT 301741Z 3018/3118 15007KT P6SM FEW070 SCT150
     FM302000 22010KT P6SM VCTS SCT070CB BKN150
     FM310200 12010KT P6SM VCTS SCT070CB BKN100
     FM310600 11008KT P6SM SCT100 BKN150=



000
FTUS45 KGJT 301741
TAFGJT
TAF
KGJT 301741Z 3018/3118 15007KT P6SM FEW070 SCT150
     FM302000 22010KT P6SM VCTS SCT070CB BKN150
     FM310200 12010KT P6SM VCTS SCT070CB BKN100
     FM310600 11008KT P6SM SCT100 BKN150=



000
FTUS45 KGJT 301741
TAFGJT
TAF
KGJT 301741Z 3018/3118 15007KT P6SM FEW070 SCT150
     FM302000 22010KT P6SM VCTS SCT070CB BKN150
     FM310200 12010KT P6SM VCTS SCT070CB BKN100
     FM310600 11008KT P6SM SCT100 BKN150=



000
FTUS45 KGJT 301120
TAFGJT
TAF
KGJT 301120Z 3012/3112 12010KT P6SM SCT250
     FM301600 15006KT P6SM FEW120 BKN200
     FM302000 22010KT P6SM VCTS SCT070CB BKN150
     FM310200 12010KT P6SM VCTS SCT070CB BKN100
     FM310600 11008KT P6SM SCT100 BKN150=



000
FTUS45 KGJT 301120
TAFGJT
TAF
KGJT 301120Z 3012/3112 12010KT P6SM SCT250
     FM301600 15006KT P6SM FEW120 BKN200
     FM302000 22010KT P6SM VCTS SCT070CB BKN150
     FM310200 12010KT P6SM VCTS SCT070CB BKN100
     FM310600 11008KT P6SM SCT100 BKN150=



000
FTUS45 KGJT 300530
TAFGJT
TAF
KGJT 300530Z 3006/3106 11008KT P6SM SCT200
     FM301600 15006KT P6SM FEW120 BKN200
     FM301800 22010KT P6SM SCT100 BKN200
     FM302100 27010KT P6SM VCTS SCT070CB BKN150
     FM310200 09006KT P6SM VCTS SCT070CB BKN100=



000
FTUS45 KGJT 300530
TAFGJT
TAF
KGJT 300530Z 3006/3106 11008KT P6SM SCT200
     FM301600 15006KT P6SM FEW120 BKN200
     FM301800 22010KT P6SM SCT100 BKN200
     FM302100 27010KT P6SM VCTS SCT070CB BKN150
     FM310200 09006KT P6SM VCTS SCT070CB BKN100=



000
FTUS45 KGJT 292321
TAFGJT
TAF
KGJT 292321Z 3000/3024 VRB03KT P6SM SCT120
     FM300200 08005KT P6SM SKC
     FM300600 10006KT P6SM SKC
     FM301200 11012KT P6SM FEW120 BKN200
     FM301800 22010KT P6SM SCT100 BKN200
     FM302100 27010KT P6SM VCTS SCT050CB BKN150=



000
FTUS45 KGJT 292321
TAFGJT
TAF
KGJT 292321Z 3000/3024 VRB03KT P6SM SCT120
     FM300200 08005KT P6SM SKC
     FM300600 10006KT P6SM SKC
     FM301200 11012KT P6SM FEW120 BKN200
     FM301800 22010KT P6SM SCT100 BKN200
     FM302100 27010KT P6SM VCTS SCT050CB BKN150=



000
FTUS45 KGJT 292321
TAFGJT
TAF
KGJT 292321Z 3000/3024 VRB03KT P6SM SCT120
     FM300200 08005KT P6SM SKC
     FM300600 10006KT P6SM SKC
     FM301200 11012KT P6SM FEW120 BKN200
     FM301800 22010KT P6SM SCT100 BKN200
     FM302100 27010KT P6SM VCTS SCT050CB BKN150=



000
FTUS45 KGJT 292321
TAFGJT
TAF
KGJT 292321Z 3000/3024 VRB03KT P6SM SCT120
     FM300200 08005KT P6SM SKC
     FM300600 10006KT P6SM SKC
     FM301200 11012KT P6SM FEW120 BKN200
     FM301800 22010KT P6SM SCT100 BKN200
     FM302100 27010KT P6SM VCTS SCT050CB BKN150=



    US Dept of Commerce
    National Oceanic and Atmospheric Administration
    National Weather Service
    1325 East West Highway
    Silver Spring, MD 20910
    Page Author: NWS Internet Services Team
Disclaimer
Information Quality
Credits
Glossary
Privacy Policy
Freedom of Information Act (FOIA)
About Us
Career Opportunities